sensor_id;sensor_type;location;lat;lon;timestamp;P1;durP1;ratioP1;P2;durP2;ratioP2
77076;SDS011;66003;52.286;104.306;2023-05-10T00:02:17;12.63;;;4.97;;
77076;SDS011;66003;52.286;104.306;2023-05-10T00:04:43;15.85;;;5.15;;
77076;SDS011;66003;52.286;104.306;2023-05-10T00:07:09;10.30;;;3.95;;
77076;SDS011;66003;52.286;104.306;2023-05-10T00:09:35;7.60;;;5.13;;
77076;SDS011;66003;52.286;104.306;2023-05-10T00:12:01;4.82;;;3.05;;
77076;SDS011;66003;52.286;104.306;2023-05-10T00:14:27;10.80;;;4.72;;
77076;SDS011;66003;52.286;104.306;2023-05-10T00:16:54;14.27;;;4.95;;
77076;SDS011;66003;52.286;104.306;2023-05-10T00:19:20;11.07;;;5.07;;
77076;SDS011;66003;52.286;104.306;2023-05-10T00:21:46;7.53;;;3.42;;
77076;SDS011;66003;52.286;104.306;2023-05-10T00:24:12;9.23;;;2.80;;
77076;SDS011;66003;52.286;104.306;2023-05-10T00:26:39;11.60;;;4.22;;
77076;SDS011;66003;52.286;104.306;2023-05-10T00:29:05;8.90;;;4.68;;
77076;SDS011;66003;52.286;104.306;2023-05-10T00:31:31;6.63;;;4.55;;
77076;SDS011;66003;52.286;104.306;2023-05-10T00:33:57;10.38;;;5.95;;
77076;SDS011;66003;52.286;104.306;2023-05-10T00:36:23;11.43;;;4.35;;
77076;SDS011;66003;52.286;104.306;2023-05-10T00:38:49;11.40;;;5.40;;
77076;SDS011;66003;52.286;104.306;2023-05-10T00:41:16;9.45;;;4.45;;
77076;SDS011;66003;52.286;104.306;2023-05-10T00:43:42;10.48;;;4.65;;
77076;SDS011;66003;52.286;104.306;2023-05-10T00:46:08;8.85;;;4.72;;
77076;SDS011;66003;52.286;104.306;2023-05-10T00:48:34;12.43;;;4.75;;
77076;SDS011;66003;52.286;104.306;2023-05-10T00:51:01;10.50;;;5.57;;
77076;SDS011;66003;52.286;104.306;2023-05-10T00:53:28;11.32;;;4.95;;
77076;SDS011;66003;52.286;104.306;2023-05-10T00:55:56;6.28;;;5.00;;
77076;SDS011;66003;52.286;104.306;2023-05-10T00:58:23;9.77;;;5.65;;
77076;SDS011;66003;52.286;104.306;2023-05-10T01:00:54;7.32;;;4.35;;
77076;SDS011;66003;52.286;104.306;2023-05-10T01:03:24;13.35;;;4.13;;
77076;SDS011;66003;52.286;104.306;2023-05-10T01:05:51;11.10;;;5.45;;
77076;SDS011;66003;52.286;104.306;2023-05-10T01:08:18;7.32;;;4.45;;
77076;SDS011;66003;52.286;104.306;2023-05-10T01:10:48;5.00;;;2.15;;
77076;SDS011;66003;52.286;104.306;2023-05-10T01:13:36;13.32;;;5.78;;
77076;SDS011;66003;52.286;104.306;2023-05-10T01:16:05;7.05;;;4.45;;
77076;SDS011;66003;52.286;104.306;2023-05-10T01:18:36;7.03;;;4.75;;
77076;SDS011;66003;52.286;104.306;2023-05-10T01:35:17;7.38;;;3.72;;
77076;SDS011;66003;52.286;104.306;2023-05-10T01:43:34;13.73;;;5.65;;
77076;SDS011;66003;52.286;104.306;2023-05-10T01:46:07;10.82;;;6.25;;
77076;SDS011;66003;52.286;104.306;2023-05-10T01:48:41;14.43;;;5.72;;
77076;SDS011;66003;52.286;104.306;2023-05-10T01:51:15;16.45;;;4.88;;
77076;SDS011;66003;52.286;104.306;2023-05-10T01:53:47;11.15;;;5.18;;
77076;SDS011;66003;52.286;104.306;2023-05-10T01:56:15;17.63;;;5.28;;
77076;SDS011;66003;52.286;104.306;2023-05-10T01:58:46;12.10;;;5.60;;
77076;SDS011;66003;52.286;104.306;2023-05-10T02:01:15;13.35;;;5.72;;
77076;SDS011;66003;52.286;104.306;2023-05-10T02:03:42;10.10;;;5.72;;
77076;SDS011;66003;52.286;104.306;2023-05-10T02:06:10;13.32;;;4.95;;
77076;SDS011;66003;52.286;104.306;2023-05-10T02:08:40;13.70;;;5.90;;
77076;SDS011;66003;52.286;104.306;2023-05-10T02:11:07;11.65;;;5.28;;
77076;SDS011;66003;52.286;104.306;2023-05-10T02:13:36;8.60;;;4.10;;
77076;SDS011;66003;52.286;104.306;2023-05-10T02:16:05;11.70;;;4.53;;
77076;SDS011;66003;52.286;104.306;2023-05-10T02:18:33;8.60;;;3.47;;
77076;SDS011;66003;52.286;104.306;2023-05-10T02:21:02;13.27;;;5.82;;
77076;SDS011;66003;52.286;104.306;2023-05-10T02:23:29;11.57;;;6.38;;
77076;SDS011;66003;52.286;104.306;2023-05-10T02:25:58;12.05;;;5.13;;
77076;SDS011;66003;52.286;104.306;2023-05-10T02:28:27;15.23;;;5.72;;
77076;SDS011;66003;52.286;104.306;2023-05-10T02:30:55;12.40;;;5.78;;
77076;SDS011;66003;52.286;104.306;2023-05-10T02:33:22;11.15;;;5.22;;
77076;SDS011;66003;52.286;104.306;2023-05-10T02:35:50;16.85;;;6.80;;
77076;SDS011;66003;52.286;104.306;2023-05-10T02:38:16;19.85;;;6.55;;
77076;SDS011;66003;52.286;104.306;2023-05-10T02:40:46;18.00;;;6.35;;
77076;SDS011;66003;52.286;104.306;2023-05-10T02:43:14;9.65;;;5.63;;
77076;SDS011;66003;52.286;104.306;2023-05-10T02:45:43;8.95;;;5.03;;
77076;SDS011;66003;52.286;104.306;2023-05-10T02:48:13;7.35;;;4.47;;
77076;SDS011;66003;52.286;104.306;2023-05-10T02:50:48;11.02;;;5.25;;
77076;SDS011;66003;52.286;104.306;2023-05-10T02:53:22;9.68;;;4.15;;
77076;SDS011;66003;52.286;104.306;2023-05-10T02:55:52;9.90;;;5.18;;
77076;SDS011;66003;52.286;104.306;2023-05-10T02:58:22;9.45;;;4.55;;
77076;SDS011;66003;52.286;104.306;2023-05-10T03:03:14;9.57;;;4.70;;
77076;SDS011;66003;52.286;104.306;2023-05-10T03:05:41;9.82;;;5.00;;
77076;SDS011;66003;52.286;104.306;2023-05-10T03:08:07;8.35;;;5.88;;
77076;SDS011;66003;52.286;104.306;2023-05-10T03:10:35;22.40;;;6.72;;
77076;SDS011;66003;52.286;104.306;2023-05-10T03:13:10;6.95;;;3.88;;
77076;SDS011;66003;52.286;104.306;2023-05-10T03:19:01;9.43;;;4.65;;
77076;SDS011;66003;52.286;104.306;2023-05-10T03:21:41;10.65;;;4.50;;
77076;SDS011;66003;52.286;104.306;2023-05-10T03:24:15;10.15;;;4.68;;
77076;SDS011;66003;52.286;104.306;2023-05-10T03:26:44;6.25;;;4.60;;
77076;SDS011;66003;52.286;104.306;2023-05-10T03:29:12;8.40;;;5.40;;
77076;SDS011;66003;52.286;104.306;2023-05-10T03:31:39;13.07;;;5.40;;
77076;SDS011;66003;52.286;104.306;2023-05-10T03:34:06;7.88;;;4.30;;
77076;SDS011;66003;52.286;104.306;2023-05-10T03:36:32;10.20;;;4.75;;
77076;SDS011;66003;52.286;104.306;2023-05-10T03:38:58;7.90;;;5.05;;
77076;SDS011;66003;52.286;104.306;2023-05-10T03:43:51;6.82;;;4.60;;
77076;SDS011;66003;52.286;104.306;2023-05-10T03:46:17;10.27;;;4.63;;
77076;SDS011;66003;52.286;104.306;2023-05-10T03:48:43;9.43;;;5.75;;
77076;SDS011;66003;52.286;104.306;2023-05-10T03:51:09;8.88;;;5.03;;
77076;SDS011;66003;52.286;104.306;2023-05-10T03:56:01;10.80;;;4.90;;
77076;SDS011;66003;52.286;104.306;2023-05-10T04:00:53;8.13;;;3.80;;
77076;SDS011;66003;52.286;104.306;2023-05-10T04:03:20;11.18;;;5.40;;
77076;SDS011;66003;52.286;104.306;2023-05-10T04:05:46;8.77;;;5.22;;
77076;SDS011;66003;52.286;104.306;2023-05-10T04:08:13;10.05;;;5.93;;
77076;SDS011;66003;52.286;104.306;2023-05-10T04:10:41;6.40;;;4.70;;
77076;SDS011;66003;52.286;104.306;2023-05-10T04:15:33;8.65;;;5.70;;
77076;SDS011;66003;52.286;104.306;2023-05-10T04:18:01;8.20;;;5.95;;
77076;SDS011;66003;52.286;104.306;2023-05-10T04:20:27;7.20;;;4.25;;
77076;SDS011;66003;52.286;104.306;2023-05-10T04:22:54;13.48;;;5.85;;
77076;SDS011;66003;52.286;104.306;2023-05-10T04:27:46;13.50;;;5.50;;
77076;SDS011;66003;52.286;104.306;2023-05-10T04:30:13;9.63;;;5.95;;
77076;SDS011;66003;52.286;104.306;2023-05-10T04:32:40;12.93;;;6.30;;
77076;SDS011;66003;52.286;104.306;2023-05-10T04:35:06;13.95;;;4.55;;
77076;SDS011;66003;52.286;104.306;2023-05-10T04:37:33;10.30;;;5.55;;
77076;SDS011;66003;52.286;104.306;2023-05-10T04:40:00;11.07;;;5.80;;
77076;SDS011;66003;52.286;104.306;2023-05-10T04:44:52;10.40;;;4.85;;
77076;SDS011;66003;52.286;104.306;2023-05-10T04:47:18;7.93;;;4.72;;
77076;SDS011;66003;52.286;104.306;2023-05-10T04:52:10;8.60;;;5.03;;
77076;SDS011;66003;52.286;104.306;2023-05-10T04:57:02;7.80;;;4.43;;
77076;SDS011;66003;52.286;104.306;2023-05-10T04:59:28;7.25;;;5.20;;
77076;SDS011;66003;52.286;104.306;2023-05-10T05:01:55;8.35;;;5.18;;
77076;SDS011;66003;52.286;104.306;2023-05-10T05:04:21;10.18;;;5.70;;
77076;SDS011;66003;52.286;104.306;2023-05-10T05:06:48;9.77;;;6.28;;
77076;SDS011;66003;52.286;104.306;2023-05-10T05:09:15;8.63;;;5.53;;
77076;SDS011;66003;52.286;104.306;2023-05-10T05:11:41;12.23;;;5.75;;
77076;SDS011;66003;52.286;104.306;2023-05-10T05:14:08;8.43;;;6.93;;
77076;SDS011;66003;52.286;104.306;2023-05-10T05:16:34;6.95;;;5.80;;
77076;SDS011;66003;52.286;104.306;2023-05-10T05:19:00;9.40;;;6.10;;
77076;SDS011;66003;52.286;104.306;2023-05-10T05:21:27;10.90;;;5.95;;
77076;SDS011;66003;52.286;104.306;2023-05-10T05:23:53;8.95;;;6.25;;
77076;SDS011;66003;52.286;104.306;2023-05-10T05:26:19;16.88;;;7.93;;
77076;SDS011;66003;52.286;104.306;2023-05-10T05:28:46;12.50;;;7.45;;
77076;SDS011;66003;52.286;104.306;2023-05-10T05:31:14;14.50;;;7.68;;
77076;SDS011;66003;52.286;104.306;2023-05-10T05:33:40;12.05;;;7.60;;
77076;SDS011;66003;52.286;104.306;2023-05-10T05:38:32;12.57;;;6.72;;
77076;SDS011;66003;52.286;104.306;2023-05-10T05:40:58;16.02;;;8.18;;
77076;SDS011;66003;52.286;104.306;2023-05-10T05:45:53;15.73;;;7.70;;
77076;SDS011;66003;52.286;104.306;2023-05-10T05:48:20;22.48;;;9.20;;
77076;SDS011;66003;52.286;104.306;2023-05-10T05:50:46;13.20;;;8.65;;
77076;SDS011;66003;52.286;104.306;2023-05-10T05:53:12;16.40;;;8.43;;
77076;SDS011;66003;52.286;104.306;2023-05-10T05:55:39;17.38;;;8.95;;
77076;SDS011;66003;52.286;104.306;2023-05-10T05:58:05;17.08;;;9.00;;
77076;SDS011;66003;52.286;104.306;2023-05-10T06:02:57;19.30;;;10.32;;
77076;SDS011;66003;52.286;104.306;2023-05-10T06:05:23;19.70;;;9.70;;
77076;SDS011;66003;52.286;104.306;2023-05-10T06:07:49;13.93;;;10.95;;
77076;SDS011;66003;52.286;104.306;2023-05-10T06:10:16;19.25;;;10.13;;
77076;SDS011;66003;52.286;104.306;2023-05-10T06:12:42;17.65;;;9.95;;
77076;SDS011;66003;52.286;104.306;2023-05-10T06:15:08;16.95;;;9.15;;
77076;SDS011;66003;52.286;104.306;2023-05-10T06:17:35;19.58;;;9.65;;
77076;SDS011;66003;52.286;104.306;2023-05-10T06:20:01;20.70;;;11.00;;
77076;SDS011;66003;52.286;104.306;2023-05-10T06:22:29;21.27;;;10.73;;
77076;SDS011;66003;52.286;104.306;2023-05-10T06:27:21;37.03;;;15.88;;
77076;SDS011;66003;52.286;104.306;2023-05-10T06:32:13;30.25;;;15.30;;
77076;SDS011;66003;52.286;104.306;2023-05-10T06:34:39;36.05;;;14.73;;
77076;SDS011;66003;52.286;104.306;2023-05-10T06:37:05;38.42;;;13.77;;
77076;SDS011;66003;52.286;104.306;2023-05-10T06:41:57;19.90;;;10.18;;
77076;SDS011;66003;52.286;104.306;2023-05-10T06:44:24;21.05;;;10.95;;
77076;SDS011;66003;52.286;104.306;2023-05-10T06:46:50;21.80;;;9.48;;
77076;SDS011;66003;52.286;104.306;2023-05-10T06:49:17;18.02;;;9.80;;
77076;SDS011;66003;52.286;104.306;2023-05-10T06:54:10;16.58;;;9.35;;
77076;SDS011;66003;52.286;104.306;2023-05-10T06:59:02;17.88;;;9.98;;
77076;SDS011;66003;52.286;104.306;2023-05-10T07:03:54;18.00;;;10.23;;
77076;SDS011;66003;52.286;104.306;2023-05-10T07:06:20;17.27;;;10.25;;
77076;SDS011;66003;52.286;104.306;2023-05-10T07:08:46;19.33;;;8.70;;
77076;SDS011;66003;52.286;104.306;2023-05-10T07:11:13;22.15;;;10.82;;
77076;SDS011;66003;52.286;104.306;2023-05-10T07:16:06;18.20;;;9.80;;
77076;SDS011;66003;52.286;104.306;2023-05-10T07:18:33;19.50;;;10.20;;
77076;SDS011;66003;52.286;104.306;2023-05-10T07:21:00;19.42;;;10.80;;
77076;SDS011;66003;52.286;104.306;2023-05-10T07:23:26;14.55;;;10.55;;
77076;SDS011;66003;52.286;104.306;2023-05-10T07:28:20;18.35;;;9.98;;
77076;SDS011;66003;52.286;104.306;2023-05-10T07:30:46;16.83;;;9.18;;
77076;SDS011;66003;52.286;104.306;2023-05-10T07:33:13;24.52;;;10.60;;
77076;SDS011;66003;52.286;104.306;2023-05-10T07:35:40;18.67;;;9.30;;
77076;SDS011;66003;52.286;104.306;2023-05-10T07:38:08;16.65;;;9.77;;
77076;SDS011;66003;52.286;104.306;2023-05-10T07:40:36;20.90;;;11.05;;
77076;SDS011;66003;52.286;104.306;2023-05-10T07:43:03;20.25;;;10.32;;
77076;SDS011;66003;52.286;104.306;2023-05-10T07:47:55;20.52;;;11.57;;
77076;SDS011;66003;52.286;104.306;2023-05-10T07:50:21;21.08;;;12.13;;
77076;SDS011;66003;52.286;104.306;2023-05-10T07:52:47;23.67;;;13.85;;
77076;SDS011;66003;52.286;104.306;2023-05-10T07:57:40;20.52;;;13.07;;
77076;SDS011;66003;52.286;104.306;2023-05-10T08:00:06;31.23;;;14.30;;
77076;SDS011;66003;52.286;104.306;2023-05-10T08:02:35;29.10;;;15.93;;
77076;SDS011;66003;52.286;104.306;2023-05-10T08:05:01;25.70;;;16.27;;
77076;SDS011;66003;52.286;104.306;2023-05-10T08:07:29;28.95;;;18.38;;
77076;SDS011;66003;52.286;104.306;2023-05-10T08:09:56;29.60;;;17.85;;
77076;SDS011;66003;52.286;104.306;2023-05-10T08:12:22;31.20;;;20.08;;
77076;SDS011;66003;52.286;104.306;2023-05-10T08:14:54;28.60;;;17.85;;
77076;SDS011;66003;52.286;104.306;2023-05-10T08:17:21;30.95;;;19.20;;
77076;SDS011;66003;52.286;104.306;2023-05-10T08:19:48;28.50;;;18.95;;
77076;SDS011;66003;52.286;104.306;2023-05-10T08:22:15;34.65;;;18.23;;
77076;SDS011;66003;52.286;104.306;2023-05-10T08:24:43;30.48;;;18.25;;
77076;SDS011;66003;52.286;104.306;2023-05-10T08:27:09;34.05;;;18.98;;
77076;SDS011;66003;52.286;104.306;2023-05-10T08:32:02;24.02;;;14.13;;
77076;SDS011;66003;52.286;104.306;2023-05-10T08:34:29;29.58;;;17.23;;
77076;SDS011;66003;52.286;104.306;2023-05-10T08:36:56;24.10;;;16.45;;
77076;SDS011;66003;52.286;104.306;2023-05-10T08:39:22;24.50;;;16.33;;
77076;SDS011;66003;52.286;104.306;2023-05-10T08:44:16;14.50;;;10.55;;
77076;SDS011;66003;52.286;104.306;2023-05-10T08:46:44;17.05;;;11.05;;
77076;SDS011;66003;52.286;104.306;2023-05-10T08:49:13;15.65;;;10.50;;
77076;SDS011;66003;52.286;104.306;2023-05-10T08:51:43;20.20;;;10.57;;
77076;SDS011;66003;52.286;104.306;2023-05-10T08:54:12;21.27;;;10.60;;
77076;SDS011;66003;52.286;104.306;2023-05-10T08:56:40;18.02;;;11.00;;
77076;SDS011;66003;52.286;104.306;2023-05-10T08:59:06;15.77;;;8.85;;
77076;SDS011;66003;52.286;104.306;2023-05-10T09:01:32;13.10;;;8.63;;
77076;SDS011;66003;52.286;104.306;2023-05-10T09:04:02;11.57;;;7.55;;
77076;SDS011;66003;52.286;104.306;2023-05-10T09:06:30;13.00;;;7.63;;
77076;SDS011;66003;52.286;104.306;2023-05-10T09:08:57;11.63;;;7.75;;
77076;SDS011;66003;52.286;104.306;2023-05-10T09:11:24;14.85;;;7.80;;
77076;SDS011;66003;52.286;104.306;2023-05-10T09:13:50;11.55;;;7.72;;
77076;SDS011;66003;52.286;104.306;2023-05-10T09:16:18;13.02;;;8.75;;
77076;SDS011;66003;52.286;104.306;2023-05-10T09:18:44;10.73;;;4.93;;
77076;SDS011;66003;52.286;104.306;2023-05-10T09:21:10;15.18;;;8.05;;
77076;SDS011;66003;52.286;104.306;2023-05-10T09:23:36;17.20;;;7.53;;
77076;SDS011;66003;52.286;104.306;2023-05-10T09:26:05;14.80;;;7.80;;
77076;SDS011;66003;52.286;104.306;2023-05-10T09:28:49;16.40;;;7.88;;
77076;SDS011;66003;52.286;104.306;2023-05-10T09:31:16;13.68;;;7.45;;
77076;SDS011;66003;52.286;104.306;2023-05-10T09:36:13;14.00;;;8.40;;
77076;SDS011;66003;52.286;104.306;2023-05-10T09:38:47;15.88;;;8.43;;
77076;SDS011;66003;52.286;104.306;2023-05-10T09:41:17;11.88;;;8.20;;
77076;SDS011;66003;52.286;104.306;2023-05-10T09:43:51;13.15;;;8.10;;
77076;SDS011;66003;52.286;104.306;2023-05-10T09:46:22;15.65;;;7.55;;
77076;SDS011;66003;52.286;104.306;2023-05-10T09:48:49;17.50;;;8.60;;
77076;SDS011;66003;52.286;104.306;2023-05-10T09:51:22;15.02;;;6.60;;
77076;SDS011;66003;52.286;104.306;2023-05-10T09:54:09;15.13;;;8.88;;
77076;SDS011;66003;52.286;104.306;2023-05-10T09:56:37;13.77;;;8.90;;
77076;SDS011;66003;52.286;104.306;2023-05-10T09:59:06;14.32;;;9.32;;
77076;SDS011;66003;52.286;104.306;2023-05-10T10:01:34;12.63;;;8.23;;
77076;SDS011;66003;52.286;104.306;2023-05-10T10:04:05;11.20;;;8.23;;
77076;SDS011;66003;52.286;104.306;2023-05-10T10:06:39;12.30;;;6.75;;
77076;SDS011;66003;52.286;104.306;2023-05-10T10:09:06;12.35;;;8.02;;
77076;SDS011;66003;52.286;104.306;2023-05-10T10:11:36;14.57;;;6.78;;
77076;SDS011;66003;52.286;104.306;2023-05-10T10:14:04;15.95;;;8.13;;
77076;SDS011;66003;52.286;104.306;2023-05-10T10:16:31;13.38;;;7.47;;
77076;SDS011;66003;52.286;104.306;2023-05-10T10:18:58;14.52;;;7.53;;
77076;SDS011;66003;52.286;104.306;2023-05-10T10:21:24;12.65;;;7.35;;
77076;SDS011;66003;52.286;104.306;2023-05-10T10:23:52;11.70;;;7.65;;
77076;SDS011;66003;52.286;104.306;2023-05-10T10:26:18;11.82;;;7.97;;
77076;SDS011;66003;52.286;104.306;2023-05-10T10:34:08;12.45;;;7.32;;
77076;SDS011;66003;52.286;104.306;2023-05-10T10:36:44;10.93;;;8.07;;
77076;SDS011;66003;52.286;104.306;2023-05-10T10:39:12;15.88;;;8.40;;
77076;SDS011;66003;52.286;104.306;2023-05-10T10:41:40;11.98;;;7.68;;
77076;SDS011;66003;52.286;104.306;2023-05-10T10:49:30;8.00;;;6.38;;
77076;SDS011;66003;52.286;104.306;2023-05-10T10:55:02;12.18;;;7.47;;
77076;SDS011;66003;52.286;104.306;2023-05-10T10:57:43;11.52;;;8.38;;
77076;SDS011;66003;52.286;104.306;2023-05-10T11:00:29;10.43;;;7.05;;
77076;SDS011;66003;52.286;104.306;2023-05-10T11:05:34;13.00;;;8.73;;
77076;SDS011;66003;52.286;104.306;2023-05-10T11:08:30;12.13;;;10.02;;
77076;SDS011;66003;52.286;104.306;2023-05-10T11:13:34;13.20;;;7.47;;
77076;SDS011;66003;52.286;104.306;2023-05-10T11:16:18;14.57;;;8.95;;
77076;SDS011;66003;52.286;104.306;2023-05-10T11:18:53;15.45;;;8.60;;
77076;SDS011;66003;52.286;104.306;2023-05-10T11:21:23;16.10;;;7.57;;
77076;SDS011;66003;52.286;104.306;2023-05-10T11:23:51;15.95;;;10.27;;
77076;SDS011;66003;52.286;104.306;2023-05-10T11:26:25;15.80;;;10.95;;
77076;SDS011;66003;52.286;104.306;2023-05-10T11:28:56;19.42;;;12.15;;
77076;SDS011;66003;52.286;104.306;2023-05-10T11:31:24;18.58;;;10.60;;
77076;SDS011;66003;52.286;104.306;2023-05-10T11:33:53;17.85;;;11.52;;
77076;SDS011;66003;52.286;104.306;2023-05-10T11:36:24;17.48;;;10.82;;
77076;SDS011;66003;52.286;104.306;2023-05-10T11:38:52;17.98;;;9.15;;
77076;SDS011;66003;52.286;104.306;2023-05-10T11:41:20;17.52;;;10.82;;
77076;SDS011;66003;52.286;104.306;2023-05-10T11:43:49;16.20;;;8.93;;
77076;SDS011;66003;52.286;104.306;2023-05-10T11:46:18;18.08;;;10.00;;
77076;SDS011;66003;52.286;104.306;2023-05-10T11:48:46;14.85;;;9.40;;
77076;SDS011;66003;52.286;104.306;2023-05-10T11:51:21;17.38;;;10.23;;
77076;SDS011;66003;52.286;104.306;2023-05-10T11:53:49;14.77;;;10.18;;
77076;SDS011;66003;52.286;104.306;2023-05-10T11:56:16;13.90;;;8.05;;
77076;SDS011;66003;52.286;104.306;2023-05-10T11:58:43;18.52;;;10.77;;
77076;SDS011;66003;52.286;104.306;2023-05-10T12:01:09;16.20;;;10.35;;
77076;SDS011;66003;52.286;104.306;2023-05-10T12:03:36;15.02;;;10.23;;
77076;SDS011;66003;52.286;104.306;2023-05-10T12:06:03;14.98;;;10.73;;
77076;SDS011;66003;52.286;104.306;2023-05-10T12:08:30;14.73;;;10.85;;
77076;SDS011;66003;52.286;104.306;2023-05-10T12:11:06;18.45;;;11.40;;
77076;SDS011;66003;52.286;104.306;2023-05-10T12:13:37;20.10;;;11.52;;
77076;SDS011;66003;52.286;104.306;2023-05-10T12:16:12;17.30;;;9.20;;
77076;SDS011;66003;52.286;104.306;2023-05-10T12:18:40;22.52;;;12.55;;
77076;SDS011;66003;52.286;104.306;2023-05-10T12:21:09;16.95;;;11.10;;
77076;SDS011;66003;52.286;104.306;2023-05-10T12:23:37;21.02;;;11.68;;
77076;SDS011;66003;52.286;104.306;2023-05-10T12:26:04;17.25;;;9.85;;
77076;SDS011;66003;52.286;104.306;2023-05-10T12:28:31;18.25;;;11.15;;
77076;SDS011;66003;52.286;104.306;2023-05-10T12:31:01;16.95;;;9.55;;
77076;SDS011;66003;52.286;104.306;2023-05-10T12:33:34;15.90;;;10.60;;
77076;SDS011;66003;52.286;104.306;2023-05-10T12:36:04;18.63;;;11.82;;
77076;SDS011;66003;52.286;104.306;2023-05-10T12:38:33;14.13;;;9.75;;
77076;SDS011;66003;52.286;104.306;2023-05-10T12:41:09;17.13;;;10.73;;
77076;SDS011;66003;52.286;104.306;2023-05-10T12:43:37;24.95;;;12.90;;
77076;SDS011;66003;52.286;104.306;2023-05-10T12:46:05;18.40;;;12.13;;
77076;SDS011;66003;52.286;104.306;2023-05-10T12:48:41;15.35;;;10.45;;
77076;SDS011;66003;52.286;104.306;2023-05-10T12:51:08;19.60;;;11.38;;
77076;SDS011;66003;52.286;104.306;2023-05-10T12:53:37;16.63;;;10.90;;
77076;SDS011;66003;52.286;104.306;2023-05-10T12:56:04;20.00;;;11.70;;
77076;SDS011;66003;52.286;104.306;2023-05-10T12:58:31;22.17;;;11.15;;
77076;SDS011;66003;52.286;104.306;2023-05-10T13:00:57;16.83;;;11.13;;
77076;SDS011;66003;52.286;104.306;2023-05-10T13:03:24;21.00;;;11.48;;
77076;SDS011;66003;52.286;104.306;2023-05-10T13:05:51;20.92;;;12.07;;
77076;SDS011;66003;52.286;104.306;2023-05-10T13:08:17;15.57;;;10.25;;
77076;SDS011;66003;52.286;104.306;2023-05-10T13:10:46;18.15;;;10.98;;
77076;SDS011;66003;52.286;104.306;2023-05-10T13:13:21;17.70;;;11.13;;
77076;SDS011;66003;52.286;104.306;2023-05-10T13:15:47;16.08;;;11.23;;
77076;SDS011;66003;52.286;104.306;2023-05-10T13:18:14;15.27;;;9.80;;
77076;SDS011;66003;52.286;104.306;2023-05-10T13:20:40;16.77;;;10.05;;
77076;SDS011;66003;52.286;104.306;2023-05-10T13:23:06;15.70;;;10.80;;
77076;SDS011;66003;52.286;104.306;2023-05-10T13:25:32;16.90;;;10.48;;
77076;SDS011;66003;52.286;104.306;2023-05-10T13:27:59;18.35;;;11.85;;
77076;SDS011;66003;52.286;104.306;2023-05-10T13:30:25;21.08;;;11.43;;
77076;SDS011;66003;52.286;104.306;2023-05-10T13:32:52;15.75;;;11.32;;
77076;SDS011;66003;52.286;104.306;2023-05-10T13:35:18;16.60;;;10.68;;
77076;SDS011;66003;52.286;104.306;2023-05-10T13:37:44;15.98;;;9.98;;
77076;SDS011;66003;52.286;104.306;2023-05-10T13:40:11;18.88;;;10.23;;
77076;SDS011;66003;52.286;104.306;2023-05-10T13:42:39;17.23;;;10.20;;
77076;SDS011;66003;52.286;104.306;2023-05-10T13:45:05;14.77;;;10.43;;
77076;SDS011;66003;52.286;104.306;2023-05-10T13:47:33;15.85;;;11.20;;
77076;SDS011;66003;52.286;104.306;2023-05-10T13:50:00;14.75;;;10.68;;
77076;SDS011;66003;52.286;104.306;2023-05-10T13:52:30;19.83;;;10.93;;
77076;SDS011;66003;52.286;104.306;2023-05-10T13:54:56;17.80;;;10.63;;
77076;SDS011;66003;52.286;104.306;2023-05-10T13:57:22;20.20;;;11.25;;
77076;SDS011;66003;52.286;104.306;2023-05-10T13:59:50;20.25;;;11.80;;
77076;SDS011;66003;52.286;104.306;2023-05-10T14:02:16;17.38;;;10.80;;
77076;SDS011;66003;52.286;104.306;2023-05-10T14:04:43;19.00;;;11.52;;
77076;SDS011;66003;52.286;104.306;2023-05-10T14:07:09;19.63;;;13.32;;
77076;SDS011;66003;52.286;104.306;2023-05-10T14:09:35;21.05;;;12.40;;
77076;SDS011;66003;52.286;104.306;2023-05-10T14:12:01;25.17;;;11.43;;
77076;SDS011;66003;52.286;104.306;2023-05-10T14:17:33;25.92;;;14.77;;
77076;SDS011;66003;52.286;104.306;2023-05-10T14:19:59;23.10;;;15.77;;
77076;SDS011;66003;52.286;104.306;2023-05-10T14:22:26;24.85;;;15.57;;
77076;SDS011;66003;52.286;104.306;2023-05-10T14:24:52;21.27;;;14.20;;
77076;SDS011;66003;52.286;104.306;2023-05-10T14:27:18;28.52;;;13.13;;
77076;SDS011;66003;52.286;104.306;2023-05-10T14:32:12;40.05;;;20.00;;
77076;SDS011;66003;52.286;104.306;2023-05-10T14:34:38;32.47;;;19.70;;
77076;SDS011;66003;52.286;104.306;2023-05-10T14:37:05;39.10;;;20.40;;
77076;SDS011;66003;52.286;104.306;2023-05-10T14:39:33;39.40;;;22.08;;
77076;SDS011;66003;52.286;104.306;2023-05-10T14:41:59;36.55;;;22.35;;
77076;SDS011;66003;52.286;104.306;2023-05-10T14:44:25;35.97;;;21.75;;
77076;SDS011;66003;52.286;104.306;2023-05-10T14:46:52;44.65;;;23.90;;
77076;SDS011;66003;52.286;104.306;2023-05-10T14:49:18;57.50;;;26.55;;
77076;SDS011;66003;52.286;104.306;2023-05-10T14:51:44;48.83;;;25.27;;
77076;SDS011;66003;52.286;104.306;2023-05-10T14:54:11;56.10;;;27.33;;
77076;SDS011;66003;52.286;104.306;2023-05-10T14:56:37;54.97;;;24.70;;
77076;SDS011;66003;52.286;104.306;2023-05-10T14:59:03;69.05;;;30.77;;
77076;SDS011;66003;52.286;104.306;2023-05-10T15:01:29;63.85;;;30.00;;
77076;SDS011;66003;52.286;104.306;2023-05-10T15:03:57;46.65;;;22.45;;
77076;SDS011;66003;52.286;104.306;2023-05-10T15:06:23;44.03;;;23.65;;
77076;SDS011;66003;52.286;104.306;2023-05-10T15:08:56;42.97;;;24.80;;
77076;SDS011;66003;52.286;104.306;2023-05-10T15:11:22;41.63;;;22.50;;
77076;SDS011;66003;52.286;104.306;2023-05-10T15:13:48;41.70;;;24.63;;
77076;SDS011;66003;52.286;104.306;2023-05-10T15:16:15;44.40;;;25.48;;
77076;SDS011;66003;52.286;104.306;2023-05-10T15:18:41;37.20;;;21.80;;
77076;SDS011;66003;52.286;104.306;2023-05-10T15:21:07;44.05;;;26.05;;
77076;SDS011;66003;52.286;104.306;2023-05-10T15:23:33;50.75;;;25.63;;
77076;SDS011;66003;52.286;104.306;2023-05-10T15:26:00;38.88;;;22.67;;
77076;SDS011;66003;52.286;104.306;2023-05-10T15:28:27;43.13;;;24.77;;
77076;SDS011;66003;52.286;104.306;2023-05-10T15:30:53;45.35;;;23.30;;
77076;SDS011;66003;52.286;104.306;2023-05-10T15:33:19;45.47;;;23.05;;
77076;SDS011;66003;52.286;104.306;2023-05-10T15:35:46;41.90;;;23.58;;
77076;SDS011;66003;52.286;104.306;2023-05-10T15:40:38;42.88;;;22.88;;
77076;SDS011;66003;52.286;104.306;2023-05-10T15:43:06;34.92;;;20.00;;
77076;SDS011;66003;52.286;104.306;2023-05-10T15:45:34;37.22;;;21.52;;
77076;SDS011;66003;52.286;104.306;2023-05-10T15:48:00;38.15;;;21.55;;
77076;SDS011;66003;52.286;104.306;2023-05-10T15:50:26;33.88;;;18.83;;
77076;SDS011;66003;52.286;104.306;2023-05-10T15:52:53;33.72;;;19.25;;
77076;SDS011;66003;52.286;104.306;2023-05-10T15:55:19;32.65;;;18.65;;
77076;SDS011;66003;52.286;104.306;2023-05-10T15:57:46;37.88;;;18.45;;
77076;SDS011;66003;52.286;104.306;2023-05-10T16:00:13;29.08;;;17.67;;
77076;SDS011;66003;52.286;104.306;2023-05-10T16:05:05;29.08;;;17.05;;